Aviation Digital Data Service (ADDS)

Output produced by TAFs form (1010 UTC 22 May 2018)
found at http://www.aviationweather.gov/adds/tafs/
 
KPIT 220937Z 2210/2312 VRB05KT 5SM -SHRA BR OVC040 
     TEMPO 2210/2211 2SM -RA BR 
     FM221200 23008KT P6SM VCSH BKN035 
     FM222300 23010KT 6SM -SHRA VCTS BKN035CB 
     FM230200 21008KT P6SM BKN035 
     FM230400 29008KT P6SM BKN020 
     FM230700 30005KT P6SM BKN015
       
KAGC 220937Z 2210/2306 VRB05KT 3SM -SHRA BR OVC040 
     FM221200 24007KT P6SM VCSH BKN035 
     FM222300 21009KT 6SM -SHRA VCTS BKN035CB 
     FM230200 21008KT P6SM BKN035 
     FM230500 29008KT P6SM BKN020
       
KBVI 220539Z 2206/2306 VRB04KT 5SM -SHRA OVC050 
     FM221200 21008KT P6SM VCSH SCT025 OVC035 
     TEMPO 2214/2216 BKN025 
     FM222200 21008KT P6SM -SHRA VCTS OVC035CB 
     FM230100 23005KT P6SM BKN035 
     FM230300 30005KT P6SM BKN015 AMD NOT SKED
       
KDUJ 220900Z 2209/2306 20005KT P6SM -SHRA OVC050 
     FM221300 19005KT P6SM VCSH OVC025 
     FM221800 23008KT P6SM VCSH BKN035 
     FM222100 24008KT P6SM -SHRA VCTS BKN035CB 
     FM230100 28005KT P6SM BKN035 
     FM230400 30005KT P6SM BKN020
       
KFKL 220800Z 2208/2306 VRB03KT P6SM -SHRA OVC050 
     FM221100 20005KT P6SM VCSH BKN025 
     FM221800 23010KT P6SM VCSH BKN035 
     FM222100 24006KT P6SM -SHRA VCTS BKN035CB 
     FM230000 29005KT P6SM BKN035 
     FM230300 31005KT P6SM BKN020
       
KHLG 220822Z 2208/2306 21005KT 5SM -SHRA BR OVC040 
     FM221200 22006KT P6SM VCSH BKN035 
     FM222300 22008KT P6SM -SHRA VCTS BKN035CB 
     FM230200 21008KT P6SM BKN035 
     FM230500 29008KT P6SM OVC025
       
KLBE 220939Z 2210/2306 VRB05KT P6SM -SHRA OVC040 
     TEMPO 2210/2212 3SM -SHRA BR 
     FM221200 23008KT P6SM VCSH BKN035 
     FM230000 22010KT 6SM -SHRA VCTS BKN035CB 
     FM230300 22008KT P6SM BKN035
       
KMGW 220539Z 2206/2306 18007KT P6SM BKN100 
     FM220900 20005KT P6SM -SHRA OVC050 
     TEMPO 2210/2214 5SM -SHRA 
     FM221500 22005KT P6SM VCSH BKN035 
     FM230200 22005KT P6SM VCTS BKN035CB
       
KZZV 220733Z 2208/2306 19005KT P6SM -SHRA OVC050 
     FM221200 20005KT P6SM VCSH SCT025 BKN035 
     FM230000 20008KT P6SM -SHRA VCTS BKN040CB 
     FM230300 19005KT P6SM BKN035